MUGM/NBW METAR and TAF weather

Enter ICAO airport designator
Station Type Date Time Source
MUGM METAR 2021/09/23 23:51 UTC NOAA

MUGM 232351Z 12008KT 10SM SCT025 SCT050 BKN280 29/27 A2990 RMK AO2 SLP123 T02940267 10317 20294 51018 $


Station Type Date Time Source
MUGM Decoded METAR 2021/09/23 23:51 UTC NOAA

GUANTANAMO BAY, CUBA NAVAL, CU, Cuba (MUGM) 19-55N 075-12W 23M
Sep 23, 2021 - 07:51 PM EDT / 2021.09.23 2351 UTC
Wind: from the ESE (120 degrees) at 9 MPH (8 KT):0
Visibility: 10 mile(s):0
Sky conditions: mostly cloudy
Temperature: 84.9 F (29.4 C)
Dew Point: 80.1 F (26.7 C)
Relative Humidity: 85%
Pressure (altimeter): 29.9 in. Hg (1012 hPa)
Pressure tendency: 0.05 inches (1.8 hPa) higher than three hours ago
ob: MUGM 232351Z 12008KT 10SM SCT025 SCT050 BKN280 29/27 A2990 RMK AO2 SLP123 T02940267 10317 20294 51018
cycle: 0

Station Type Date Time Source
MUGM TAF 2021/09/23 23:03 UTC NOAA

TAF MUGM 2323/2423 12006KT 9999 VCSH SCT025CB SCT050 BKN280 QNH2988INS
BECMG 2401/2403 VRB06KT 9999 VCSH SCT025CB BKN280 QNH2990INS
BECMG 2404/2406 35006KT 9999 VCSH SCT025CB SCT280 QNH2988INS
FM241600 16011KT 9999 VCSH FEW025CB FEW060 BKN280 QNH2988INS T24/2411Z T32/2418Z FN20025

Example: see airport list